Seal Beach, California
Current Conditions -  °F | °C
As of 2:58 PM on Thursday 27 Nov 2014 (Local Time) from KSLI Reporting Station
Clear Clear  
Wind Chill: 80°   Ceiling: Unl
Heat Index: 80°   Visibility: 10mi
Dew Point: 41°   Wind: 7mph
Humidity: 25%   Direction: 210°SSW
Pressure: 29.99"   Gusts: NA
Location:  33.74°N, 118.1°W
Report Text: KSLI 272258Z AUTO 21006KT 10SM CLR 27/05 A2999 RMK AO2 SLP159 T02680051
Loading
Personal Weather Stations






























Interactive Weather Map New forecast layout! Learn more

10-Day Weather Forecast

Advertisements
Track Severe Weather on mobile